sensor_id;sensor_type;location;lat;lon;timestamp;P1;durP1;ratioP1;P2;durP2;ratioP2
14799;SDS011;7491;57.750;11.970;2023-05-31T00:01:29;1.85;;;0.93;;
14799;SDS011;7491;57.750;11.970;2023-05-31T00:03:57;1.55;;;0.90;;
14799;SDS011;7491;57.750;11.970;2023-05-31T00:06:24;3.58;;;1.00;;
14799;SDS011;7491;57.750;11.970;2023-05-31T00:08:51;3.13;;;1.15;;
14799;SDS011;7491;57.750;11.970;2023-05-31T00:11:17;1.90;;;0.90;;
14799;SDS011;7491;57.750;11.970;2023-05-31T00:13:44;3.50;;;1.10;;
14799;SDS011;7491;57.750;11.970;2023-05-31T00:16:11;1.45;;;0.80;;
14799;SDS011;7491;57.750;11.970;2023-05-31T00:18:38;2.22;;;0.77;;
14799;SDS011;7491;57.750;11.970;2023-05-31T00:21:06;2.00;;;1.00;;
14799;SDS011;7491;57.750;11.970;2023-05-31T00:23:33;3.30;;;1.08;;
14799;SDS011;7491;57.750;11.970;2023-05-31T00:26:00;1.40;;;1.00;;
14799;SDS011;7491;57.750;11.970;2023-05-31T00:28:26;3.10;;;1.00;;
14799;SDS011;7491;57.750;11.970;2023-05-31T00:30:53;2.17;;;1.02;;
14799;SDS011;7491;57.750;11.970;2023-05-31T00:33:20;1.42;;;0.82;;
14799;SDS011;7491;57.750;11.970;2023-05-31T00:35:46;2.67;;;0.75;;
14799;SDS011;7491;57.750;11.970;2023-05-31T00:38:14;1.70;;;0.93;;
14799;SDS011;7491;57.750;11.970;2023-05-31T00:40:41;2.72;;;0.98;;
14799;SDS011;7491;57.750;11.970;2023-05-31T00:43:08;5.15;;;1.15;;
14799;SDS011;7491;57.750;11.970;2023-05-31T00:45:34;3.80;;;0.90;;
14799;SDS011;7491;57.750;11.970;2023-05-31T00:48:01;3.00;;;1.10;;
14799;SDS011;7491;57.750;11.970;2023-05-31T00:50:29;4.18;;;1.00;;
14799;SDS011;7491;57.750;11.970;2023-05-31T00:52:56;3.95;;;0.88;;
14799;SDS011;7491;57.750;11.970;2023-05-31T00:55:27;2.75;;;0.70;;
14799;SDS011;7491;57.750;11.970;2023-05-31T00:57:55;1.33;;;0.90;;
14799;SDS011;7491;57.750;11.970;2023-05-31T01:00:22;2.75;;;1.05;;
14799;SDS011;7491;57.750;11.970;2023-05-31T01:02:50;3.22;;;1.00;;
14799;SDS011;7491;57.750;11.970;2023-05-31T01:05:17;3.38;;;1.00;;
14799;SDS011;7491;57.750;11.970;2023-05-31T01:07:44;4.32;;;1.40;;
14799;SDS011;7491;57.750;11.970;2023-05-31T01:10:11;3.58;;;1.08;;
14799;SDS011;7491;57.750;11.970;2023-05-31T01:12:44;3.13;;;1.15;;
14799;SDS011;7491;57.750;11.970;2023-05-31T01:15:19;1.50;;;0.90;;
14799;SDS011;7491;57.750;11.970;2023-05-31T01:17:51;3.40;;;1.20;;
14799;SDS011;7491;57.750;11.970;2023-05-31T01:20:27;2.20;;;1.05;;
14799;SDS011;7491;57.750;11.970;2023-05-31T01:23:03;2.45;;;1.10;;
14799;SDS011;7491;57.750;11.970;2023-05-31T01:25:46;2.28;;;1.05;;
14799;SDS011;7491;57.750;11.970;2023-05-31T01:28:33;3.22;;;1.20;;
14799;SDS011;7491;57.750;11.970;2023-05-31T01:31:03;3.47;;;1.20;;
14799;SDS011;7491;57.750;11.970;2023-05-31T01:33:33;2.05;;;0.90;;
14799;SDS011;7491;57.750;11.970;2023-05-31T01:36:00;4.00;;;1.08;;
14799;SDS011;7491;57.750;11.970;2023-05-31T01:38:28;7.18;;;1.50;;
14799;SDS011;7491;57.750;11.970;2023-05-31T01:40:55;11.88;;;1.33;;
14799;SDS011;7491;57.750;11.970;2023-05-31T01:43:24;3.60;;;1.65;;
14799;SDS011;7491;57.750;11.970;2023-05-31T01:45:54;4.13;;;1.50;;
14799;SDS011;7491;57.750;11.970;2023-05-31T01:48:22;6.82;;;1.50;;
14799;SDS011;7491;57.750;11.970;2023-05-31T01:50:51;5.07;;;1.35;;
14799;SDS011;7491;57.750;11.970;2023-05-31T01:53:18;4.32;;;1.17;;
14799;SDS011;7491;57.750;11.970;2023-05-31T01:55:45;3.88;;;1.10;;
14799;SDS011;7491;57.750;11.970;2023-05-31T01:58:13;3.45;;;1.20;;
14799;SDS011;7491;57.750;11.970;2023-05-31T02:00:42;5.13;;;1.65;;
14799;SDS011;7491;57.750;11.970;2023-05-31T02:03:11;3.10;;;1.30;;
14799;SDS011;7491;57.750;11.970;2023-05-31T02:08:23;7.43;;;1.77;;
14799;SDS011;7491;57.750;11.970;2023-05-31T02:10:50;6.47;;;1.85;;
14799;SDS011;7491;57.750;11.970;2023-05-31T02:13:17;9.75;;;2.38;;
14799;SDS011;7491;57.750;11.970;2023-05-31T02:15:44;6.88;;;1.90;;
14799;SDS011;7491;57.750;11.970;2023-05-31T02:18:13;4.57;;;1.60;;
14799;SDS011;7491;57.750;11.970;2023-05-31T02:20:41;7.30;;;2.13;;
14799;SDS011;7491;57.750;11.970;2023-05-31T02:23:08;15.38;;;3.08;;
14799;SDS011;7491;57.750;11.970;2023-05-31T02:25:35;7.30;;;2.20;;
14799;SDS011;7491;57.750;11.970;2023-05-31T02:28:02;11.18;;;2.63;;
14799;SDS011;7491;57.750;11.970;2023-05-31T02:30:30;7.70;;;1.98;;
14799;SDS011;7491;57.750;11.970;2023-05-31T02:32:57;9.15;;;2.40;;
14799;SDS011;7491;57.750;11.970;2023-05-31T02:35:26;8.68;;;2.28;;
14799;SDS011;7491;57.750;11.970;2023-05-31T02:37:53;8.95;;;2.42;;
14799;SDS011;7491;57.750;11.970;2023-05-31T02:40:19;11.75;;;2.75;;
14799;SDS011;7491;57.750;11.970;2023-05-31T02:42:46;15.80;;;2.65;;
14799;SDS011;7491;57.750;11.970;2023-05-31T02:45:13;9.20;;;2.63;;
14799;SDS011;7491;57.750;11.970;2023-05-31T02:47:40;11.25;;;2.83;;
14799;SDS011;7491;57.750;11.970;2023-05-31T02:50:07;12.65;;;2.50;;
14799;SDS011;7491;57.750;11.970;2023-05-31T02:52:36;10.68;;;3.35;;
14799;SDS011;7491;57.750;11.970;2023-05-31T02:55:04;7.22;;;2.70;;
14799;SDS011;7491;57.750;11.970;2023-05-31T02:57:31;15.32;;;2.90;;
14799;SDS011;7491;57.750;11.970;2023-05-31T03:00:01;7.90;;;3.13;;
14799;SDS011;7491;57.750;11.970;2023-05-31T03:02:37;12.05;;;3.00;;
14799;SDS011;7491;57.750;11.970;2023-05-31T03:05:06;9.20;;;2.53;;
14799;SDS011;7491;57.750;11.970;2023-05-31T03:07:36;11.35;;;2.63;;
14799;SDS011;7491;57.750;11.970;2023-05-31T03:10:03;9.73;;;3.05;;
14799;SDS011;7491;57.750;11.970;2023-05-31T03:12:30;9.88;;;2.85;;
14799;SDS011;7491;57.750;11.970;2023-05-31T03:14:57;9.07;;;3.08;;
14799;SDS011;7491;57.750;11.970;2023-05-31T03:17:24;7.15;;;2.67;;
14799;SDS011;7491;57.750;11.970;2023-05-31T03:19:51;8.00;;;2.97;;
14799;SDS011;7491;57.750;11.970;2023-05-31T03:22:18;15.45;;;4.10;;
14799;SDS011;7491;57.750;11.970;2023-05-31T03:24:47;11.70;;;3.10;;
14799;SDS011;7491;57.750;11.970;2023-05-31T03:27:14;12.95;;;3.47;;
14799;SDS011;7491;57.750;11.970;2023-05-31T03:29:41;18.55;;;3.17;;
14799;SDS011;7491;57.750;11.970;2023-05-31T03:32:08;15.50;;;3.42;;
14799;SDS011;7491;57.750;11.970;2023-05-31T03:34:35;13.65;;;3.70;;
14799;SDS011;7491;57.750;11.970;2023-05-31T03:37:02;17.00;;;4.18;;
14799;SDS011;7491;57.750;11.970;2023-05-31T03:39:29;14.35;;;3.35;;
14799;SDS011;7491;57.750;11.970;2023-05-31T03:41:59;17.77;;;3.60;;
14799;SDS011;7491;57.750;11.970;2023-05-31T03:44:27;19.42;;;3.40;;
14799;SDS011;7491;57.750;11.970;2023-05-31T03:46:53;12.63;;;3.33;;
14799;SDS011;7491;57.750;11.970;2023-05-31T03:49:20;10.57;;;3.40;;
14799;SDS011;7491;57.750;11.970;2023-05-31T03:51:46;21.98;;;4.22;;
14799;SDS011;7491;57.750;11.970;2023-05-31T03:54:13;19.75;;;5.10;;
14799;SDS011;7491;57.750;11.970;2023-05-31T03:56:40;10.55;;;3.80;;
14799;SDS011;7491;57.750;11.970;2023-05-31T03:59:09;20.10;;;4.55;;
14799;SDS011;7491;57.750;11.970;2023-05-31T04:01:35;21.58;;;4.70;;
14799;SDS011;7491;57.750;11.970;2023-05-31T04:04:02;14.80;;;4.95;;
14799;SDS011;7491;57.750;11.970;2023-05-31T04:06:29;17.88;;;4.05;;
14799;SDS011;7491;57.750;11.970;2023-05-31T04:08:55;16.05;;;4.80;;
14799;SDS011;7491;57.750;11.970;2023-05-31T04:11:22;15.25;;;4.20;;
14799;SDS011;7491;57.750;11.970;2023-05-31T04:13:49;18.40;;;4.00;;
14799;SDS011;7491;57.750;11.970;2023-05-31T04:16:17;19.40;;;5.00;;
14799;SDS011;7491;57.750;11.970;2023-05-31T04:18:44;18.52;;;4.90;;
14799;SDS011;7491;57.750;11.970;2023-05-31T04:21:10;16.65;;;4.72;;
14799;SDS011;7491;57.750;11.970;2023-05-31T04:23:37;18.77;;;4.35;;
14799;SDS011;7491;57.750;11.970;2023-05-31T04:26:04;18.63;;;5.05;;
14799;SDS011;7491;57.750;11.970;2023-05-31T04:28:31;18.20;;;4.30;;
14799;SDS011;7491;57.750;11.970;2023-05-31T04:30:58;16.45;;;4.90;;
14799;SDS011;7491;57.750;11.970;2023-05-31T04:33:27;19.67;;;4.43;;
14799;SDS011;7491;57.750;11.970;2023-05-31T04:35:54;19.08;;;5.40;;
14799;SDS011;7491;57.750;11.970;2023-05-31T04:38:22;20.33;;;4.82;;
14799;SDS011;7491;57.750;11.970;2023-05-31T04:40:52;16.98;;;5.22;;
14799;SDS011;7491;57.750;11.970;2023-05-31T04:43:20;19.70;;;5.18;;
14799;SDS011;7491;57.750;11.970;2023-05-31T04:45:48;21.33;;;4.70;;
14799;SDS011;7491;57.750;11.970;2023-05-31T04:48:16;24.70;;;5.82;;
14799;SDS011;7491;57.750;11.970;2023-05-31T04:50:44;21.33;;;4.80;;
14799;SDS011;7491;57.750;11.970;2023-05-31T04:53:11;20.52;;;4.60;;
14799;SDS011;7491;57.750;11.970;2023-05-31T04:55:38;20.50;;;4.82;;
14799;SDS011;7491;57.750;11.970;2023-05-31T04:58:05;15.52;;;4.88;;
14799;SDS011;7491;57.750;11.970;2023-05-31T05:00:33;21.50;;;4.40;;
14799;SDS011;7491;57.750;11.970;2023-05-31T05:03:02;23.52;;;5.13;;
14799;SDS011;7491;57.750;11.970;2023-05-31T05:05:28;15.40;;;5.07;;
14799;SDS011;7491;57.750;11.970;2023-05-31T05:07:57;21.10;;;5.75;;
14799;SDS011;7491;57.750;11.970;2023-05-31T05:10:23;25.27;;;5.82;;
14799;SDS011;7491;57.750;11.970;2023-05-31T05:12:50;20.88;;;5.68;;
14799;SDS011;7491;57.750;11.970;2023-05-31T05:15:17;21.60;;;6.05;;
14799;SDS011;7491;57.750;11.970;2023-05-31T05:17:44;24.30;;;5.70;;
14799;SDS011;7491;57.750;11.970;2023-05-31T05:20:11;25.00;;;5.72;;
14799;SDS011;7491;57.750;11.970;2023-05-31T05:22:38;24.17;;;6.53;;
14799;SDS011;7491;57.750;11.970;2023-05-31T05:25:07;25.98;;;6.05;;
14799;SDS011;7491;57.750;11.970;2023-05-31T05:27:34;15.88;;;5.35;;
14799;SDS011;7491;57.750;11.970;2023-05-31T05:30:00;23.75;;;6.05;;
14799;SDS011;7491;57.750;11.970;2023-05-31T05:32:28;24.42;;;5.72;;
14799;SDS011;7491;57.750;11.970;2023-05-31T05:34:55;23.60;;;5.60;;
14799;SDS011;7491;57.750;11.970;2023-05-31T05:37:21;19.80;;;5.57;;
14799;SDS011;7491;57.750;11.970;2023-05-31T05:39:48;22.88;;;6.05;;
14799;SDS011;7491;57.750;11.970;2023-05-31T05:42:16;23.00;;;6.63;;
14799;SDS011;7491;57.750;11.970;2023-05-31T05:44:44;38.47;;;6.00;;
14799;SDS011;7491;57.750;11.970;2023-05-31T05:47:12;62.42;;;8.38;;
14799;SDS011;7491;57.750;11.970;2023-05-31T05:49:39;25.42;;;6.78;;
14799;SDS011;7491;57.750;11.970;2023-05-31T05:52:06;19.23;;;5.38;;
14799;SDS011;7491;57.750;11.970;2023-05-31T05:54:33;24.85;;;6.13;;
14799;SDS011;7491;57.750;11.970;2023-05-31T05:56:59;24.63;;;5.97;;
14799;SDS011;7491;57.750;11.970;2023-05-31T05:59:28;23.15;;;6.20;;
14799;SDS011;7491;57.750;11.970;2023-05-31T06:01:55;20.60;;;5.07;;
14799;SDS011;7491;57.750;11.970;2023-05-31T06:04:21;19.48;;;6.07;;
14799;SDS011;7491;57.750;11.970;2023-05-31T06:06:48;22.23;;;6.32;;
14799;SDS011;7491;57.750;11.970;2023-05-31T06:09:15;26.48;;;6.05;;
14799;SDS011;7491;57.750;11.970;2023-05-31T06:11:42;27.00;;;7.15;;
14799;SDS011;7491;57.750;11.970;2023-05-31T06:14:09;26.02;;;5.63;;
14799;SDS011;7491;57.750;11.970;2023-05-31T06:16:37;25.92;;;6.43;;
14799;SDS011;7491;57.750;11.970;2023-05-31T06:19:04;26.17;;;5.80;;
14799;SDS011;7491;57.750;11.970;2023-05-31T06:21:30;21.83;;;5.75;;
14799;SDS011;7491;57.750;11.970;2023-05-31T06:23:58;19.77;;;6.07;;
14799;SDS011;7491;57.750;11.970;2023-05-31T06:26:24;23.90;;;6.97;;
14799;SDS011;7491;57.750;11.970;2023-05-31T06:28:52;18.55;;;5.03;;
14799;SDS011;7491;57.750;11.970;2023-05-31T06:31:18;21.73;;;6.07;;
14799;SDS011;7491;57.750;11.970;2023-05-31T06:33:46;18.67;;;5.95;;
14799;SDS011;7491;57.750;11.970;2023-05-31T06:36:13;23.55;;;5.88;;
14799;SDS011;7491;57.750;11.970;2023-05-31T06:38:40;19.48;;;5.90;;
14799;SDS011;7491;57.750;11.970;2023-05-31T06:41:07;22.00;;;6.25;;
14799;SDS011;7491;57.750;11.970;2023-05-31T06:43:33;18.05;;;5.28;;
14799;SDS011;7491;57.750;11.970;2023-05-31T06:46:00;21.42;;;5.60;;
14799;SDS011;7491;57.750;11.970;2023-05-31T06:48:27;19.08;;;5.47;;
14799;SDS011;7491;57.750;11.970;2023-05-31T06:50:55;24.63;;;6.57;;
14799;SDS011;7491;57.750;11.970;2023-05-31T06:53:22;18.10;;;5.72;;
14799;SDS011;7491;57.750;11.970;2023-05-31T06:55:48;18.92;;;6.03;;
14799;SDS011;7491;57.750;11.970;2023-05-31T06:58:16;16.60;;;5.50;;
14799;SDS011;7491;57.750;11.970;2023-05-31T07:00:43;18.85;;;6.20;;
14799;SDS011;7491;57.750;11.970;2023-05-31T07:03:09;22.15;;;5.53;;
14799;SDS011;7491;57.750;11.970;2023-05-31T07:05:36;21.20;;;6.65;;
14799;SDS011;7491;57.750;11.970;2023-05-31T07:08:07;22.40;;;5.30;;
14799;SDS011;7491;57.750;11.970;2023-05-31T07:10:33;23.88;;;5.47;;
14799;SDS011;7491;57.750;11.970;2023-05-31T07:13:00;19.05;;;6.70;;
14799;SDS011;7491;57.750;11.970;2023-05-31T07:15:27;19.95;;;5.40;;
14799;SDS011;7491;57.750;11.970;2023-05-31T07:17:53;25.83;;;5.88;;
14799;SDS011;7491;57.750;11.970;2023-05-31T07:20:21;23.88;;;5.55;;
14799;SDS011;7491;57.750;11.970;2023-05-31T07:22:47;27.80;;;5.82;;
14799;SDS011;7491;57.750;11.970;2023-05-31T07:25:15;22.85;;;6.47;;
14799;SDS011;7491;57.750;11.970;2023-05-31T07:27:42;20.40;;;5.15;;
14799;SDS011;7491;57.750;11.970;2023-05-31T07:30:09;15.40;;;5.13;;
14799;SDS011;7491;57.750;11.970;2023-05-31T07:32:36;23.75;;;5.18;;
14799;SDS011;7491;57.750;11.970;2023-05-31T07:35:03;15.50;;;4.97;;
14799;SDS011;7491;57.750;11.970;2023-05-31T07:37:31;16.05;;;5.50;;
14799;SDS011;7491;57.750;11.970;2023-05-31T07:39:58;15.35;;;4.60;;
14799;SDS011;7491;57.750;11.970;2023-05-31T07:42:26;16.08;;;5.43;;
14799;SDS011;7491;57.750;11.970;2023-05-31T07:44:53;17.23;;;5.30;;
14799;SDS011;7491;57.750;11.970;2023-05-31T07:47:20;13.90;;;4.30;;
14799;SDS011;7491;57.750;11.970;2023-05-31T07:49:47;18.98;;;6.05;;
14799;SDS011;7491;57.750;11.970;2023-05-31T07:52:16;22.08;;;5.93;;
14799;SDS011;7491;57.750;11.970;2023-05-31T07:54:46;21.13;;;4.90;;
14799;SDS011;7491;57.750;11.970;2023-05-31T07:57:13;18.58;;;4.43;;
14799;SDS011;7491;57.750;11.970;2023-05-31T07:59:41;16.95;;;5.20;;
14799;SDS011;7491;57.750;11.970;2023-05-31T08:02:08;19.10;;;5.85;;
14799;SDS011;7491;57.750;11.970;2023-05-31T08:04:35;20.63;;;5.63;;
14799;SDS011;7491;57.750;11.970;2023-05-31T08:07:01;24.20;;;5.97;;
14799;SDS011;7491;57.750;11.970;2023-05-31T08:09:28;17.73;;;4.40;;
14799;SDS011;7491;57.750;11.970;2023-05-31T08:11:55;16.52;;;5.43;;
14799;SDS011;7491;57.750;11.970;2023-05-31T08:14:22;19.73;;;5.10;;
14799;SDS011;7491;57.750;11.970;2023-05-31T08:16:50;17.63;;;4.38;;
14799;SDS011;7491;57.750;11.970;2023-05-31T08:19:17;16.70;;;4.55;;
14799;SDS011;7491;57.750;11.970;2023-05-31T08:21:44;17.10;;;4.88;;
14799;SDS011;7491;57.750;11.970;2023-05-31T08:24:12;14.00;;;4.82;;
14799;SDS011;7491;57.750;11.970;2023-05-31T08:26:38;10.10;;;4.32;;
14799;SDS011;7491;57.750;11.970;2023-05-31T08:29:05;14.48;;;4.90;;
14799;SDS011;7491;57.750;11.970;2023-05-31T08:31:32;14.50;;;4.25;;
14799;SDS011;7491;57.750;11.970;2023-05-31T08:34:01;16.70;;;5.15;;
14799;SDS011;7491;57.750;11.970;2023-05-31T08:36:28;12.48;;;5.13;;
14799;SDS011;7491;57.750;11.970;2023-05-31T08:38:55;21.83;;;5.38;;
14799;SDS011;7491;57.750;11.970;2023-05-31T08:41:23;19.35;;;4.65;;
14799;SDS011;7491;57.750;11.970;2023-05-31T08:43:50;14.77;;;4.55;;
14799;SDS011;7491;57.750;11.970;2023-05-31T08:46:18;15.18;;;4.55;;
14799;SDS011;7491;57.750;11.970;2023-05-31T08:48:49;10.88;;;4.25;;
14799;SDS011;7491;57.750;11.970;2023-05-31T08:51:21;13.18;;;4.05;;
14799;SDS011;7491;57.750;11.970;2023-05-31T08:53:50;16.88;;;5.10;;
14799;SDS011;7491;57.750;11.970;2023-05-31T08:56:17;19.17;;;5.97;;
14799;SDS011;7491;57.750;11.970;2023-05-31T08:58:48;18.85;;;5.28;;
14799;SDS011;7491;57.750;11.970;2023-05-31T09:01:16;14.88;;;4.43;;
14799;SDS011;7491;57.750;11.970;2023-05-31T09:03:44;10.73;;;4.32;;
14799;SDS011;7491;57.750;11.970;2023-05-31T09:06:11;13.80;;;4.03;;
14799;SDS011;7491;57.750;11.970;2023-05-31T09:08:39;14.57;;;4.15;;
14799;SDS011;7491;57.750;11.970;2023-05-31T09:11:06;13.98;;;3.85;;
14799;SDS011;7491;57.750;11.970;2023-05-31T09:13:34;13.85;;;4.30;;
14799;SDS011;7491;57.750;11.970;2023-05-31T09:16:01;15.68;;;4.85;;
14799;SDS011;7491;57.750;11.970;2023-05-31T09:18:32;14.20;;;4.10;;
14799;SDS011;7491;57.750;11.970;2023-05-31T09:21:06;16.63;;;4.60;;
14799;SDS011;7491;57.750;11.970;2023-05-31T09:23:35;12.48;;;4.63;;
14799;SDS011;7491;57.750;11.970;2023-05-31T09:26:05;14.45;;;5.03;;
14799;SDS011;7491;57.750;11.970;2023-05-31T09:28:33;14.55;;;4.35;;
14799;SDS011;7491;57.750;11.970;2023-05-31T09:31:01;8.45;;;3.95;;
14799;SDS011;7491;57.750;11.970;2023-05-31T09:33:39;7.53;;;3.30;;
14799;SDS011;7491;57.750;11.970;2023-05-31T09:36:07;8.45;;;3.25;;
14799;SDS011;7491;57.750;11.970;2023-05-31T09:38:35;9.98;;;2.90;;
14799;SDS011;7491;57.750;11.970;2023-05-31T09:41:17;19.60;;;3.00;;
14799;SDS011;7491;57.750;11.970;2023-05-31T09:43:45;3.33;;;2.33;;
14799;SDS011;7491;57.750;11.970;2023-05-31T09:46:13;5.40;;;2.47;;
14799;SDS011;7491;57.750;11.970;2023-05-31T09:48:42;6.38;;;2.53;;
14799;SDS011;7491;57.750;11.970;2023-05-31T09:51:09;4.03;;;2.55;;
14799;SDS011;7491;57.750;11.970;2023-05-31T09:53:41;6.78;;;2.67;;
14799;SDS011;7491;57.750;11.970;2023-05-31T09:56:09;6.10;;;2.45;;
14799;SDS011;7491;57.750;11.970;2023-05-31T09:58:38;5.80;;;2.90;;
14799;SDS011;7491;57.750;11.970;2023-05-31T10:01:05;5.93;;;2.38;;
14799;SDS011;7491;57.750;11.970;2023-05-31T10:03:32;5.03;;;2.22;;
14799;SDS011;7491;57.750;11.970;2023-05-31T10:06:00;5.35;;;2.90;;
14799;SDS011;7491;57.750;11.970;2023-05-31T10:08:39;5.10;;;2.17;;
14799;SDS011;7491;57.750;11.970;2023-05-31T10:11:15;6.40;;;2.85;;
14799;SDS011;7491;57.750;11.970;2023-05-31T10:14:01;5.72;;;2.50;;
14799;SDS011;7491;57.750;11.970;2023-05-31T10:16:38;10.55;;;2.25;;
14799;SDS011;7491;57.750;11.970;2023-05-31T10:19:10;4.35;;;1.92;;
14799;SDS011;7491;57.750;11.970;2023-05-31T10:21:43;5.28;;;2.53;;
14799;SDS011;7491;57.750;11.970;2023-05-31T10:24:17;3.63;;;2.20;;
14799;SDS011;7491;57.750;11.970;2023-05-31T10:26:53;4.43;;;2.25;;
14799;SDS011;7491;57.750;11.970;2023-05-31T10:29:28;3.85;;;2.38;;
14799;SDS011;7491;57.750;11.970;2023-05-31T10:32:13;5.30;;;2.63;;
14799;SDS011;7491;57.750;11.970;2023-05-31T10:34:56;2.78;;;2.08;;
14799;SDS011;7491;57.750;11.970;2023-05-31T10:37:25;8.40;;;2.08;;
14799;SDS011;7491;57.750;11.970;2023-05-31T10:39:58;8.65;;;2.80;;
14799;SDS011;7491;57.750;11.970;2023-05-31T10:42:36;6.40;;;2.33;;
14799;SDS011;7491;57.750;11.970;2023-05-31T10:45:23;6.95;;;1.80;;
14799;SDS011;7491;57.750;11.970;2023-05-31T10:47:55;5.93;;;2.47;;
14799;SDS011;7491;57.750;11.970;2023-05-31T10:50:34;5.00;;;2.42;;
14799;SDS011;7491;57.750;11.970;2023-05-31T10:53:11;5.53;;;2.55;;
14799;SDS011;7491;57.750;11.970;2023-05-31T10:55:40;4.63;;;2.03;;
14799;SDS011;7491;57.750;11.970;2023-05-31T10:58:08;3.20;;;1.80;;
14799;SDS011;7491;57.750;11.970;2023-05-31T11:00:55;3.40;;;2.10;;
14799;SDS011;7491;57.750;11.970;2023-05-31T11:03:22;4.53;;;1.80;;
14799;SDS011;7491;57.750;11.970;2023-05-31T11:05:56;3.83;;;2.10;;
14799;SDS011;7491;57.750;11.970;2023-05-31T11:08:24;3.58;;;1.75;;
14799;SDS011;7491;57.750;11.970;2023-05-31T11:10:51;4.03;;;2.42;;
14799;SDS011;7491;57.750;11.970;2023-05-31T11:13:18;3.85;;;1.90;;
14799;SDS011;7491;57.750;11.970;2023-05-31T11:15:45;3.83;;;1.90;;
14799;SDS011;7491;57.750;11.970;2023-05-31T11:18:15;3.53;;;2.10;;
14799;SDS011;7491;57.750;11.970;2023-05-31T11:20:48;4.35;;;1.70;;
14799;SDS011;7491;57.750;11.970;2023-05-31T11:23:24;2.25;;;2.00;;
14799;SDS011;7491;57.750;11.970;2023-05-31T11:26:07;2.17;;;1.70;;
14799;SDS011;7491;57.750;11.970;2023-05-31T11:28:49;3.05;;;1.67;;
14799;SDS011;7491;57.750;11.970;2023-05-31T11:34:22;3.17;;;1.52;;
14799;SDS011;7491;57.750;11.970;2023-05-31T11:36:50;4.90;;;1.75;;
14799;SDS011;7491;57.750;11.970;2023-05-31T11:39:17;2.45;;;1.65;;
14799;SDS011;7491;57.750;11.970;2023-05-31T11:41:44;3.10;;;1.85;;
14799;SDS011;7491;57.750;11.970;2023-05-31T11:44:11;2.10;;;1.63;;
14799;SDS011;7491;57.750;11.970;2023-05-31T11:46:40;3.75;;;1.58;;
14799;SDS011;7491;57.750;11.970;2023-05-31T11:49:11;1.88;;;1.40;;
14799;SDS011;7491;57.750;11.970;2023-05-31T11:51:42;2.47;;;1.35;;
14799;SDS011;7491;57.750;11.970;2023-05-31T11:54:09;1.50;;;1.40;;
14799;SDS011;7491;57.750;11.970;2023-05-31T11:56:39;3.10;;;1.60;;
14799;SDS011;7491;57.750;11.970;2023-05-31T11:59:09;2.88;;;1.42;;
14799;SDS011;7491;57.750;11.970;2023-05-31T12:01:40;2.00;;;1.25;;
14799;SDS011;7491;57.750;11.970;2023-05-31T12:04:06;2.35;;;1.60;;
14799;SDS011;7491;57.750;11.970;2023-05-31T12:06:36;2.85;;;1.52;;
14799;SDS011;7491;57.750;11.970;2023-05-31T12:09:04;3.22;;;1.60;;
14799;SDS011;7491;57.750;11.970;2023-05-31T12:11:36;2.38;;;1.52;;
14799;SDS011;7491;57.750;11.970;2023-05-31T12:14:03;2.28;;;1.88;;
14799;SDS011;7491;57.750;11.970;2023-05-31T12:16:30;3.47;;;1.63;;
14799;SDS011;7491;57.750;11.970;2023-05-31T12:18:57;2.92;;;1.35;;
14799;SDS011;7491;57.750;11.970;2023-05-31T12:21:23;2.03;;;1.30;;
14799;SDS011;7491;57.750;11.970;2023-05-31T12:23:51;3.03;;;1.50;;
14799;SDS011;7491;57.750;11.970;2023-05-31T12:26:19;6.15;;;1.70;;
14799;SDS011;7491;57.750;11.970;2023-05-31T12:28:48;2.63;;;1.42;;
14799;SDS011;7491;57.750;11.970;2023-05-31T12:31:21;3.45;;;1.33;;
14799;SDS011;7491;57.750;11.970;2023-05-31T12:36:37;3.78;;;1.45;;
14799;SDS011;7491;57.750;11.970;2023-05-31T12:39:08;2.97;;;1.50;;
14799;SDS011;7491;57.750;11.970;2023-05-31T12:41:38;1.73;;;1.40;;
14799;SDS011;7491;57.750;11.970;2023-05-31T12:44:08;2.58;;;1.40;;
14799;SDS011;7491;57.750;11.970;2023-05-31T12:46:38;4.00;;;1.30;;
14799;SDS011;7491;57.750;11.970;2023-05-31T12:49:10;2.63;;;1.70;;
14799;SDS011;7491;57.750;11.970;2023-05-31T12:51:37;3.75;;;1.70;;
14799;SDS011;7491;57.750;11.970;2023-05-31T12:54:09;3.30;;;1.65;;
14799;SDS011;7491;57.750;11.970;2023-05-31T12:56:38;2.08;;;1.77;;
14799;SDS011;7491;57.750;11.970;2023-05-31T12:59:05;2.65;;;1.58;;
14799;SDS011;7491;57.750;11.970;2023-05-31T13:01:33;2.28;;;1.48;;
14799;SDS011;7491;57.750;11.970;2023-05-31T13:04:00;2.88;;;1.60;;
14799;SDS011;7491;57.750;11.970;2023-05-31T13:06:27;2.75;;;1.80;;
14799;SDS011;7491;57.750;11.970;2023-05-31T13:08:54;4.57;;;1.73;;
14799;SDS011;7491;57.750;11.970;2023-05-31T13:11:21;2.38;;;1.63;;
14799;SDS011;7491;57.750;11.970;2023-05-31T13:13:49;2.00;;;1.63;;
14799;SDS011;7491;57.750;11.970;2023-05-31T13:16:16;4.18;;;1.63;;
14799;SDS011;7491;57.750;11.970;2023-05-31T13:18:42;4.13;;;1.60;;
14799;SDS011;7491;57.750;11.970;2023-05-31T13:21:09;2.10;;;1.70;;
14799;SDS011;7491;57.750;11.970;2023-05-31T13:23:37;3.55;;;1.50;;
14799;SDS011;7491;57.750;11.970;2023-05-31T13:26:04;2.15;;;1.52;;
14799;SDS011;7491;57.750;11.970;2023-05-31T13:28:31;3.13;;;1.50;;
14799;SDS011;7491;57.750;11.970;2023-05-31T13:30:59;3.55;;;1.30;;
14799;SDS011;7491;57.750;11.970;2023-05-31T13:33:26;2.88;;;2.03;;
14799;SDS011;7491;57.750;11.970;2023-05-31T13:35:54;2.92;;;1.35;;
14799;SDS011;7491;57.750;11.970;2023-05-31T13:38:21;3.10;;;2.00;;
14799;SDS011;7491;57.750;11.970;2023-05-31T13:40:48;2.67;;;1.70;;
14799;SDS011;7491;57.750;11.970;2023-05-31T13:43:16;1.90;;;1.60;;
14799;SDS011;7491;57.750;11.970;2023-05-31T13:45:46;4.95;;;1.63;;
14799;SDS011;7491;57.750;11.970;2023-05-31T13:48:14;2.08;;;1.73;;
14799;SDS011;7491;57.750;11.970;2023-05-31T13:50:41;4.18;;;1.60;;
14799;SDS011;7491;57.750;11.970;2023-05-31T13:53:08;1.88;;;1.20;;
14799;SDS011;7491;57.750;11.970;2023-05-31T13:55:35;3.38;;;1.38;;
14799;SDS011;7491;57.750;11.970;2023-05-31T13:58:02;2.83;;;1.75;;
14799;SDS011;7491;57.750;11.970;2023-05-31T14:00:29;2.58;;;1.73;;
14799;SDS011;7491;57.750;11.970;2023-05-31T14:02:56;2.40;;;1.38;;
14799;SDS011;7491;57.750;11.970;2023-05-31T14:05:24;2.03;;;1.73;;
14799;SDS011;7491;57.750;11.970;2023-05-31T14:07:52;2.20;;;1.48;;
14799;SDS011;7491;57.750;11.970;2023-05-31T14:10:19;2.05;;;1.67;;
14799;SDS011;7491;57.750;11.970;2023-05-31T14:12:46;1.65;;;1.55;;
14799;SDS011;7491;57.750;11.970;2023-05-31T14:15:13;1.80;;;1.67;;
14799;SDS011;7491;57.750;11.970;2023-05-31T14:17:40;1.80;;;1.70;;
14799;SDS011;7491;57.750;11.970;2023-05-31T14:20:07;2.85;;;1.75;;
14799;SDS011;7491;57.750;11.970;2023-05-31T14:22:36;1.27;;;1.17;;
14799;SDS011;7491;57.750;11.970;2023-05-31T14:25:03;5.65;;;1.40;;
14799;SDS011;7491;57.750;11.970;2023-05-31T14:27:30;4.40;;;1.70;;
14799;SDS011;7491;57.750;11.970;2023-05-31T14:29:57;1.83;;;1.60;;
14799;SDS011;7491;57.750;11.970;2023-05-31T14:32:24;2.45;;;1.35;;
14799;SDS011;7491;57.750;11.970;2023-05-31T14:34:50;2.05;;;1.33;;
14799;SDS011;7491;57.750;11.970;2023-05-31T14:37:17;3.85;;;1.30;;
14799;SDS011;7491;57.750;11.970;2023-05-31T14:39:46;2.60;;;1.33;;
14799;SDS011;7491;57.750;11.970;2023-05-31T14:42:12;1.63;;;1.45;;
14799;SDS011;7491;57.750;11.970;2023-05-31T14:44:39;2.50;;;1.42;;
14799;SDS011;7491;57.750;11.970;2023-05-31T14:47:06;1.98;;;1.20;;
14799;SDS011;7491;57.750;11.970;2023-05-31T14:49:33;2.22;;;1.20;;
14799;SDS011;7491;57.750;11.970;2023-05-31T14:52:07;1.65;;;1.30;;
14799;SDS011;7491;57.750;11.970;2023-05-31T14:54:43;1.90;;;1.20;;
14799;SDS011;7491;57.750;11.970;2023-05-31T14:57:50;1.63;;;1.05;;